sensor_id;sensor_type;location;lat;lon;timestamp;pressure;altitude;pressure_sealevel;temperature;humidity
61786;BME280;47692;53.714;11.372;2023-01-26T00:01:42;101885.69;;;-3.29;100.00
61786;BME280;47692;53.714;11.372;2023-01-26T00:04:08;101883.59;;;-3.36;100.00
61786;BME280;47692;53.714;11.372;2023-01-26T00:06:34;101878.66;;;-3.33;100.00
61786;BME280;47692;53.714;11.372;2023-01-26T00:08:59;101877.44;;;-3.39;100.00
61786;BME280;47692;53.714;11.372;2023-01-26T00:11:25;101871.47;;;-3.40;100.00
61786;BME280;47692;53.714;11.372;2023-01-26T00:13:51;101869.88;;;-3.38;100.00
61786;BME280;47692;53.714;11.372;2023-01-26T00:16:16;101871.13;;;-3.46;100.00
61786;BME280;47692;53.714;11.372;2023-01-26T00:18:41;101859.03;;;-3.50;100.00
61786;BME280;47692;53.714;11.372;2023-01-26T00:21:07;101871.84;;;-3.49;100.00
61786;BME280;47692;53.714;11.372;2023-01-26T00:23:34;101857.41;;;-3.48;100.00
61786;BME280;47692;53.714;11.372;2023-01-26T00:26:00;101855.81;;;-3.46;100.00
61786;BME280;47692;53.714;11.372;2023-01-26T00:28:27;101849.84;;;-3.47;100.00
61786;BME280;47692;53.714;11.372;2023-01-26T00:30:53;101842.25;;;-3.45;100.00
61786;BME280;47692;53.714;11.372;2023-01-26T00:33:18;101840.16;;;-3.36;100.00
61786;BME280;47692;53.714;11.372;2023-01-26T00:35:43;101842.41;;;-3.42;100.00
61786;BME280;47692;53.714;11.372;2023-01-26T00:38:09;101845.94;;;-3.40;100.00
61786;BME280;47692;53.714;11.372;2023-01-26T00:40:35;101839.00;;;-3.43;100.00
61786;BME280;47692;53.714;11.372;2023-01-26T00:43:00;101846.66;;;-3.43;100.00
61786;BME280;47692;53.714;11.372;2023-01-26T00:45:25;101837.47;;;-3.39;100.00
61786;BME280;47692;53.714;11.372;2023-01-26T00:47:51;101832.19;;;-3.42;100.00
61786;BME280;47692;53.714;11.372;2023-01-26T00:50:17;101820.38;;;-3.40;100.00
61786;BME280;47692;53.714;11.372;2023-01-26T00:52:42;101829.03;;;-3.38;100.00
61786;BME280;47692;53.714;11.372;2023-01-26T00:55:07;101820.84;;;-3.31;100.00
61786;BME280;47692;53.714;11.372;2023-01-26T00:57:32;101812.63;;;-3.25;100.00
61786;BME280;47692;53.714;11.372;2023-01-26T00:59:58;101814.50;;;-3.39;100.00
61786;BME280;47692;53.714;11.372;2023-01-26T01:02:23;101818.94;;;-3.35;100.00
61786;BME280;47692;53.714;11.372;2023-01-26T01:04:48;101819.25;;;-3.29;100.00
61786;BME280;47692;53.714;11.372;2023-01-26T01:07:13;101818.16;;;-3.34;100.00
61786;BME280;47692;53.714;11.372;2023-01-26T01:09:39;101817.19;;;-3.36;100.00
61786;BME280;47692;53.714;11.372;2023-01-26T01:12:04;101816.72;;;-3.29;100.00
61786;BME280;47692;53.714;11.372;2023-01-26T01:14:29;101821.03;;;-3.28;100.00
61786;BME280;47692;53.714;11.372;2023-01-26T01:16:54;101827.72;;;-3.30;100.00
61786;BME280;47692;53.714;11.372;2023-01-26T01:19:20;101822.78;;;-3.27;100.00
61786;BME280;47692;53.714;11.372;2023-01-26T01:21:45;101831.00;;;-3.32;100.00
61786;BME280;47692;53.714;11.372;2023-01-26T01:24:10;101826.13;;;-3.28;100.00
61786;BME280;47692;53.714;11.372;2023-01-26T01:26:36;101818.41;;;-3.29;100.00
61786;BME280;47692;53.714;11.372;2023-01-26T01:29:02;101825.97;;;-3.31;100.00
61786;BME280;47692;53.714;11.372;2023-01-26T01:31:27;101818.22;;;-3.32;100.00
61786;BME280;47692;53.714;11.372;2023-01-26T01:33:53;101818.09;;;-3.35;100.00
61786;BME280;47692;53.714;11.372;2023-01-26T01:36:19;101810.31;;;-3.37;100.00
61786;BME280;47692;53.714;11.372;2023-01-26T01:38:44;101803.63;;;-3.35;100.00
61786;BME280;47692;53.714;11.372;2023-01-26T01:41:10;101810.63;;;-3.31;100.00
61786;BME280;47692;53.714;11.372;2023-01-26T01:43:36;101810.50;;;-3.34;100.00
61786;BME280;47692;53.714;11.372;2023-01-26T01:46:02;101808.72;;;-3.35;100.00
61786;BME280;47692;53.714;11.372;2023-01-26T01:51:03;101803.06;;;-3.29;100.00
61786;BME280;47692;53.714;11.372;2023-01-26T01:53:31;101807.28;;;-3.30;100.00
61786;BME280;47692;53.714;11.372;2023-01-26T01:55:59;101804.91;;;-3.27;100.00
61786;BME280;47692;53.714;11.372;2023-01-26T01:58:26;101790.50;;;-3.25;100.00
61786;BME280;47692;53.714;11.372;2023-01-26T02:00:53;101785.41;;;-3.25;100.00
61786;BME280;47692;53.714;11.372;2023-01-26T02:03:19;101787.97;;;-3.25;100.00
61786;BME280;47692;53.714;11.372;2023-01-26T02:06:02;101782.22;;;-3.20;100.00
61786;BME280;47692;53.714;11.372;2023-01-26T02:08:39;101780.28;;;-3.25;100.00
61786;BME280;47692;53.714;11.372;2023-01-26T02:11:06;101775.38;;;-3.21;100.00
61786;BME280;47692;53.714;11.372;2023-01-26T02:13:33;101775.19;;;-3.25;100.00
61786;BME280;47692;53.714;11.372;2023-01-26T02:15:58;101756.81;;;-3.17;100.00
61786;BME280;47692;53.714;11.372;2023-01-26T02:18:24;101766.19;;;-3.18;100.00
61786;BME280;47692;53.714;11.372;2023-01-26T02:20:51;101758.44;;;-3.19;100.00
61786;BME280;47692;53.714;11.372;2023-01-26T02:23:30;101763.25;;;-3.26;100.00
61786;BME280;47692;53.714;11.372;2023-01-26T02:26:02;101761.06;;;-3.18;100.00
61786;BME280;47692;53.714;11.372;2023-01-26T02:28:27;101753.47;;;-3.16;100.00
61786;BME280;47692;53.714;11.372;2023-01-26T02:30:53;101751.56;;;-3.20;100.00
61786;BME280;47692;53.714;11.372;2023-01-26T02:33:20;101750.78;;;-3.19;100.00
61786;BME280;47692;53.714;11.372;2023-01-26T02:35:46;101741.19;;;-3.23;100.00
61786;BME280;47692;53.714;11.372;2023-01-26T02:38:11;101739.34;;;-3.26;100.00
61786;BME280;47692;53.714;11.372;2023-01-26T02:40:37;101736.66;;;-3.29;100.00
61786;BME280;47692;53.714;11.372;2023-01-26T02:43:04;101736.25;;;-3.20;100.00
61786;BME280;47692;53.714;11.372;2023-01-26T02:45:30;101734.31;;;-3.25;100.00
61786;BME280;47692;53.714;11.372;2023-01-26T02:47:56;101734.31;;;-3.25;100.00
61786;BME280;47692;53.714;11.372;2023-01-26T02:50:23;101730.97;;;-3.23;100.00
61786;BME280;47692;53.714;11.372;2023-01-26T02:52:49;101728.34;;;-3.25;100.00
61786;BME280;47692;53.714;11.372;2023-01-26T02:55:14;101732.72;;;-3.22;100.00
61786;BME280;47692;53.714;11.372;2023-01-26T02:57:55;101727.63;;;-3.22;100.00
61786;BME280;47692;53.714;11.372;2023-01-26T03:00:22;101732.78;;;-3.21;100.00
61786;BME280;47692;53.714;11.372;2023-01-26T03:02:48;101723.41;;;-3.22;100.00
61786;BME280;47692;53.714;11.372;2023-01-26T03:05:14;101719.16;;;-3.21;100.00
61786;BME280;47692;53.714;11.372;2023-01-26T03:07:40;101723.31;;;-3.23;100.00
61786;BME280;47692;53.714;11.372;2023-01-26T03:10:05;101725.88;;;-3.23;100.00
61786;BME280;47692;53.714;11.372;2023-01-26T03:12:31;101730.09;;;-3.24;100.00
61786;BME280;47692;53.714;11.372;2023-01-26T03:14:56;101735.59;;;-3.16;100.00
61786;BME280;47692;53.714;11.372;2023-01-26T03:17:40;101736.69;;;-3.11;100.00
61786;BME280;47692;53.714;11.372;2023-01-26T03:20:05;101734.06;;;-3.13;100.00
61786;BME280;47692;53.714;11.372;2023-01-26T03:22:49;101724.56;;;-3.15;100.00
61786;BME280;47692;53.714;11.372;2023-01-26T03:25:38;101730.00;;;-3.09;100.00
61786;BME280;47692;53.714;11.372;2023-01-26T03:28:22;101723.13;;;-3.10;100.00
61786;BME280;47692;53.714;11.372;2023-01-26T03:30:48;101730.13;;;-3.06;100.00
61786;BME280;47692;53.714;11.372;2023-01-26T03:33:13;101725.75;;;-3.09;100.00
61786;BME280;47692;53.714;11.372;2023-01-26T03:35:39;101724.81;;;-3.11;100.00
61786;BME280;47692;53.714;11.372;2023-01-26T03:38:04;101727.38;;;-3.11;100.00
61786;BME280;47692;53.714;11.372;2023-01-26T03:40:29;101714.72;;;-3.08;100.00
61786;BME280;47692;53.714;11.372;2023-01-26T03:43:13;101715.69;;;-3.05;100.00
61786;BME280;47692;53.714;11.372;2023-01-26T03:45:57;101716.56;;;-3.05;100.00
61786;BME280;47692;53.714;11.372;2023-01-26T03:48:41;101719.03;;;-3.06;100.00
61786;BME280;47692;53.714;11.372;2023-01-26T03:51:25;101716.72;;;-3.02;100.00
61786;BME280;47692;53.714;11.372;2023-01-26T03:54:08;101717.94;;;-2.94;100.00
61786;BME280;47692;53.714;11.372;2023-01-26T03:56:52;101718.09;;;-2.90;100.00
61786;BME280;47692;53.714;11.372;2023-01-26T03:59:18;101717.16;;;-2.93;100.00
61786;BME280;47692;53.714;11.372;2023-01-26T04:02:02;101717.09;;;-2.94;100.00
61786;BME280;47692;53.714;11.372;2023-01-26T04:04:46;101717.09;;;-2.94;100.00
61786;BME280;47692;53.714;11.372;2023-01-26T04:07:29;101710.88;;;-2.99;100.00
61786;BME280;47692;53.714;11.372;2023-01-26T04:10:13;101708.56;;;-2.95;100.00
61786;BME280;47692;53.714;11.372;2023-01-26T04:12:39;101705.84;;;-2.98;100.00
61786;BME280;47692;53.714;11.372;2023-01-26T04:15:05;101705.91;;;-2.96;100.00
61786;BME280;47692;53.714;11.372;2023-01-26T04:17:48;101710.88;;;-2.99;100.00
61786;BME280;47692;53.714;11.372;2023-01-26T04:20:33;101709.97;;;-3.00;100.00
61786;BME280;47692;53.714;11.372;2023-01-26T04:23:17;101703.16;;;-3.01;100.00
61786;BME280;47692;53.714;11.372;2023-01-26T04:25:43;101696.41;;;-2.99;100.00
61786;BME280;47692;53.714;11.372;2023-01-26T04:28:08;101694.81;;;-2.97;100.00
61786;BME280;47692;53.714;11.372;2023-01-26T04:30:33;101687.94;;;-2.98;100.00
61786;BME280;47692;53.714;11.372;2023-01-26T04:32:58;101687.16;;;-2.97;100.00
61786;BME280;47692;53.714;11.372;2023-01-26T04:35:23;101688.09;;;-2.95;100.00
61786;BME280;47692;53.714;11.372;2023-01-26T04:37:49;101690.66;;;-2.95;100.00
61786;BME280;47692;53.714;11.372;2023-01-26T04:40:14;101683.94;;;-2.93;100.00
61786;BME280;47692;53.714;11.372;2023-01-26T04:42:39;101684.66;;;-2.95;100.00
61786;BME280;47692;53.714;11.372;2023-01-26T04:45:04;101687.50;;;-2.89;100.00
61786;BME280;47692;53.714;11.372;2023-01-26T04:47:30;101691.66;;;-2.91;100.00
61786;BME280;47692;53.714;11.372;2023-01-26T04:49:55;101708.69;;;-2.92;100.00
61786;BME280;47692;53.714;11.372;2023-01-26T04:52:20;101701.97;;;-2.89;100.00
61786;BME280;47692;53.714;11.372;2023-01-26T04:54:45;101708.81;;;-2.88;100.00
61786;BME280;47692;53.714;11.372;2023-01-26T04:57:10;101696.56;;;-2.96;100.00
61786;BME280;47692;53.714;11.372;2023-01-26T04:59:36;101691.47;;;-2.96;100.00
61786;BME280;47692;53.714;11.372;2023-01-26T05:02:01;101691.75;;;-2.89;100.00
61786;BME280;47692;53.714;11.372;2023-01-26T05:04:26;101701.00;;;-2.92;100.00
61786;BME280;47692;53.714;11.372;2023-01-26T05:06:51;101701.81;;;-2.93;100.00
61786;BME280;47692;53.714;11.372;2023-01-26T05:09:17;101711.66;;;-2.82;100.00
61786;BME280;47692;53.714;11.372;2023-01-26T05:11:42;101705.34;;;-2.90;100.00
61786;BME280;47692;53.714;11.372;2023-01-26T05:14:07;101694.31;;;-2.89;100.00
61786;BME280;47692;53.714;11.372;2023-01-26T05:16:32;101679.78;;;-2.90;100.00
61786;BME280;47692;53.714;11.372;2023-01-26T05:18:58;101688.09;;;-2.95;100.00
61786;BME280;47692;53.714;11.372;2023-01-26T05:21:23;101675.53;;;-2.90;100.00
61786;BME280;47692;53.714;11.372;2023-01-26T05:23:49;101684.00;;;-2.91;100.00
61786;BME280;47692;53.714;11.372;2023-01-26T05:26:14;101684.09;;;-2.89;100.00
61786;BME280;47692;53.714;11.372;2023-01-26T05:28:39;101678.00;;;-2.92;100.00
61786;BME280;47692;53.714;11.372;2023-01-26T05:31:04;101683.94;;;-2.93;100.00
61786;BME280;47692;53.714;11.372;2023-01-26T05:33:30;101685.75;;;-2.90;100.00
61786;BME280;47692;53.714;11.372;2023-01-26T05:35:55;101680.06;;;-2.84;100.00
61786;BME280;47692;53.714;11.372;2023-01-26T05:38:20;101681.66;;;-2.86;100.00
61786;BME280;47692;53.714;11.372;2023-01-26T05:40:45;101678.16;;;-2.88;100.00
61786;BME280;47692;53.714;11.372;2023-01-26T05:43:11;101676.72;;;-2.83;100.00
61786;BME280;47692;53.714;11.372;2023-01-26T05:45:37;101681.09;;;-2.81;100.00
61786;BME280;47692;53.714;11.372;2023-01-26T05:48:02;101680.19;;;-2.81;100.00
61786;BME280;47692;53.714;11.372;2023-01-26T05:50:27;101678.59;;;-2.79;100.00
61786;BME280;47692;53.714;11.372;2023-01-26T05:52:52;101682.25;;;-2.74;100.00
61786;BME280;47692;53.714;11.372;2023-01-26T05:55:18;101694.06;;;-2.76;100.00
61786;BME280;47692;53.714;11.372;2023-01-26T05:57:43;101694.22;;;-2.73;100.00
61786;BME280;47692;53.714;11.372;2023-01-26T06:00:09;101686.50;;;-2.74;100.00
61786;BME280;47692;53.714;11.372;2023-01-26T06:02:34;101693.44;;;-2.72;100.00
61786;BME280;47692;53.714;11.372;2023-01-26T06:04:59;101689.91;;;-2.74;100.00
61786;BME280;47692;53.714;11.372;2023-01-26T06:07:24;101689.13;;;-2.73;100.00
61786;BME280;47692;53.714;11.372;2023-01-26T06:09:50;101686.56;;;-2.73;100.00
61786;BME280;47692;53.714;11.372;2023-01-26T06:12:16;101685.75;;;-2.72;100.00
61786;BME280;47692;53.714;11.372;2023-01-26T06:14:41;101677.00;;;-2.77;100.00
61786;BME280;47692;53.714;11.372;2023-01-26T06:17:07;101682.91;;;-2.78;100.00
61786;BME280;47692;53.714;11.372;2023-01-26T06:19:32;101683.78;;;-2.78;100.00
61786;BME280;47692;53.714;11.372;2023-01-26T06:21:58;101685.75;;;-2.72;100.00
61786;BME280;47692;53.714;11.372;2023-01-26T06:24:23;101692.91;;;-2.65;100.00
61786;BME280;47692;53.714;11.372;2023-01-26T06:26:48;101692.09;;;-2.64;100.00
61786;BME280;47692;53.714;11.372;2023-01-26T06:29:13;101688.78;;;-2.61;100.00
61786;BME280;47692;53.714;11.372;2023-01-26T06:31:39;101677.59;;;-2.65;100.00
61786;BME280;47692;53.714;11.372;2023-01-26T06:34:05;101675.66;;;-2.69;100.00
61786;BME280;47692;53.714;11.372;2023-01-26T06:36:30;101681.88;;;-2.64;100.00
61786;BME280;47692;53.714;11.372;2023-01-26T06:38:55;101697.19;;;-2.64;100.00
61786;BME280;47692;53.714;11.372;2023-01-26T06:41:21;101696.41;;;-2.63;100.00
61786;BME280;47692;53.714;11.372;2023-01-26T06:43:46;101703.28;;;-2.62;100.00
61786;BME280;47692;53.714;11.372;2023-01-26T06:46:12;101703.28;;;-2.62;100.00
61786;BME280;47692;53.714;11.372;2023-01-26T06:48:38;101703.28;;;-2.62;100.00
61786;BME280;47692;53.714;11.372;2023-01-26T06:53:50;101697.50;;;-2.57;100.00
61786;BME280;47692;53.714;11.372;2023-01-26T06:56:16;101696.56;;;-2.60;100.00
61786;BME280;47692;53.714;11.372;2023-01-26T06:58:41;101695.75;;;-2.58;100.00
61786;BME280;47692;53.714;11.372;2023-01-26T07:01:08;101698.31;;;-2.58;100.00
61786;BME280;47692;53.714;11.372;2023-01-26T07:03:33;101696.19;;;-2.49;100.00
61786;BME280;47692;53.714;11.372;2023-01-26T07:05:58;101700.34;;;-2.51;100.00
61786;BME280;47692;53.714;11.372;2023-01-26T07:08:23;101695.22;;;-2.51;100.00
61786;BME280;47692;53.714;11.372;2023-01-26T07:10:49;101690.94;;;-2.52;100.00
61786;BME280;47692;53.714;11.372;2023-01-26T07:13:14;101703.72;;;-2.52;100.00
61786;BME280;47692;53.714;11.372;2023-01-26T07:15:40;101699.53;;;-2.50;100.00
61786;BME280;47692;53.714;11.372;2023-01-26T07:18:05;101705.59;;;-2.48;100.00
61786;BME280;47692;53.714;11.372;2023-01-26T07:20:30;101705.72;;;-2.45;100.00
61786;BME280;47692;53.714;11.372;2023-01-26T07:22:55;101711.00;;;-2.42;100.00
61786;BME280;47692;53.714;11.372;2023-01-26T07:25:23;101714.38;;;-2.43;100.00
61786;BME280;47692;53.714;11.372;2023-01-26T07:27:48;101708.50;;;-2.40;100.00
61786;BME280;47692;53.714;11.372;2023-01-26T07:30:13;101708.56;;;-2.39;100.00
61786;BME280;47692;53.714;11.372;2023-01-26T07:32:38;101717.88;;;-2.41;100.00
61786;BME280;47692;53.714;11.372;2023-01-26T07:35:04;101710.94;;;-2.44;100.00
61786;BME280;47692;53.714;11.372;2023-01-26T07:37:29;101713.69;;;-2.39;100.00
61786;BME280;47692;53.714;11.372;2023-01-26T07:39:55;101716.13;;;-2.42;100.00
61786;BME280;47692;53.714;11.372;2023-01-26T07:42:20;101708.56;;;-2.39;100.00
61786;BME280;47692;53.714;11.372;2023-01-26T07:44:45;101709.53;;;-2.37;100.00
61786;BME280;47692;53.714;11.372;2023-01-26T07:47:11;101713.91;;;-2.34;100.00
61786;BME280;47692;53.714;11.372;2023-01-26T07:49:36;101711.56;;;-2.30;100.00
61786;BME280;47692;53.714;11.372;2023-01-26T07:52:01;101710.63;;;-2.32;100.00
61786;BME280;47692;53.714;11.372;2023-01-26T07:54:26;101709.66;;;-2.34;100.00
61786;BME280;47692;53.714;11.372;2023-01-26T07:56:52;101707.94;;;-2.35;100.00
61786;BME280;47692;53.714;11.372;2023-01-26T07:59:18;101704.53;;;-2.34;100.00
61786;BME280;47692;53.714;11.372;2023-01-26T08:01:43;101701.19;;;-2.33;100.00
61786;BME280;47692;53.714;11.372;2023-01-26T08:04:08;101697.97;;;-2.29;100.00
61786;BME280;47692;53.714;11.372;2023-01-26T08:06:35;101707.59;;;-2.23;100.00
61786;BME280;47692;53.714;11.372;2023-01-26T08:09:00;101712.88;;;-2.20;100.00
61786;BME280;47692;53.714;11.372;2023-01-26T08:11:26;101713.88;;;-2.16;100.00
61786;BME280;47692;53.714;11.372;2023-01-26T08:13:51;101708.78;;;-2.16;100.00
61786;BME280;47692;53.714;11.372;2023-01-26T08:16:16;101714.81;;;-2.14;100.00
61786;BME280;47692;53.714;11.372;2023-01-26T08:18:42;101717.66;;;-2.08;100.00
61786;BME280;47692;53.714;11.372;2023-01-26T08:21:08;101718.44;;;-2.09;100.00
61786;BME280;47692;53.714;11.372;2023-01-26T08:23:34;101714.28;;;-2.07;100.00
61786;BME280;47692;53.714;11.372;2023-01-26T08:26:00;101716.03;;;-2.06;100.00
61786;BME280;47692;53.714;11.372;2023-01-26T08:28:25;101720.88;;;-2.12;100.00
61786;BME280;47692;53.714;11.372;2023-01-26T08:30:50;101715.91;;;-2.09;100.00
61786;BME280;47692;53.714;11.372;2023-01-26T08:33:15;101713.50;;;-2.06;100.00
61786;BME280;47692;53.714;11.372;2023-01-26T08:35:41;101716.00;;;-2.07;100.00
61786;BME280;47692;53.714;11.372;2023-01-26T08:38:06;101716.84;;;-2.07;100.00
61786;BME280;47692;53.714;11.372;2023-01-26T08:40:31;101713.50;;;-2.06;100.00
61786;BME280;47692;53.714;11.372;2023-01-26T08:42:58;101714.56;;;-2.01;100.00
61786;BME280;47692;53.714;11.372;2023-01-26T08:45:23;101718.88;;;-2.00;100.00
61786;BME280;47692;53.714;11.372;2023-01-26T08:47:49;101718.19;;;-1.96;100.00
61786;BME280;47692;53.714;11.372;2023-01-26T08:50:15;101726.78;;;-1.95;100.00
61786;BME280;47692;53.714;11.372;2023-01-26T08:52:40;101729.50;;;-1.90;100.00
61786;BME280;47692;53.714;11.372;2023-01-26T08:55:06;101726.84;;;-1.93;100.00
61786;BME280;47692;53.714;11.372;2023-01-26T08:57:31;101726.22;;;-1.88;100.00
61786;BME280;47692;53.714;11.372;2023-01-26T08:59:56;101728.94;;;-1.85;100.00
61786;BME280;47692;53.714;11.372;2023-01-26T09:02:21;101730.63;;;-1.85;100.00
61786;BME280;47692;53.714;11.372;2023-01-26T09:04:46;101728.88;;;-1.86;100.00
61786;BME280;47692;53.714;11.372;2023-01-26T09:07:12;101738.38;;;-1.84;100.00
61786;BME280;47692;53.714;11.372;2023-01-26T09:09:37;101727.84;;;-1.90;100.00
61786;BME280;47692;53.714;11.372;2023-01-26T09:12:02;101728.66;;;-1.91;100.00
61786;BME280;47692;53.714;11.372;2023-01-26T09:14:28;101731.16;;;-1.92;100.00
61786;BME280;47692;53.714;11.372;2023-01-26T09:16:53;101732.06;;;-1.90;100.00
61786;BME280;47692;53.714;11.372;2023-01-26T09:19:18;101730.47;;;-1.88;100.00
61786;BME280;47692;53.714;11.372;2023-01-26T09:21:44;101733.03;;;-1.88;100.00
61786;BME280;47692;53.714;11.372;2023-01-26T09:24:09;101731.28;;;-1.89;100.00
61786;BME280;47692;53.714;11.372;2023-01-26T09:26:34;101729.47;;;-1.92;100.00
61786;BME280;47692;53.714;11.372;2023-01-26T09:29:00;101727.84;;;-1.90;100.00
61786;BME280;47692;53.714;11.372;2023-01-26T09:31:25;101727.97;;;-1.87;100.00
61786;BME280;47692;53.714;11.372;2023-01-26T09:33:50;101732.22;;;-1.87;100.00
61786;BME280;47692;53.714;11.372;2023-01-26T09:36:15;101731.50;;;-1.85;100.00
61786;BME280;47692;53.714;11.372;2023-01-26T09:38:41;101728.19;;;-1.82;100.00
61786;BME280;47692;53.714;11.372;2023-01-26T09:41:12;101724.59;;;-1.86;100.00
61786;BME280;47692;53.714;11.372;2023-01-26T09:43:47;101736.94;;;-1.77;100.00
61786;BME280;47692;53.714;11.372;2023-01-26T09:46:19;101730.06;;;-1.78;100.00
61786;BME280;47692;53.714;11.372;2023-01-26T09:48:47;101740.31;;;-1.78;100.00
61786;BME280;47692;53.714;11.372;2023-01-26T09:54:00;101726.75;;;-1.75;100.00
61786;BME280;47692;53.714;11.372;2023-01-26T09:56:29;101724.28;;;-1.74;100.00
61786;BME280;47692;53.714;11.372;2023-01-26T09:58:56;101726.91;;;-1.72;100.00
61786;BME280;47692;53.714;11.372;2023-01-26T10:03:56;101720.19;;;-1.70;100.00
61786;BME280;47692;53.714;11.372;2023-01-26T10:06:23;101722.91;;;-1.66;100.00
61786;BME280;47692;53.714;11.372;2023-01-26T10:08:51;101713.16;;;-1.55;100.00
61786;BME280;47692;53.714;11.372;2023-01-26T10:11:24;101704.50;;;-1.57;100.00
61786;BME280;47692;53.714;11.372;2023-01-26T10:13:53;101699.47;;;-1.55;100.00
61786;BME280;47692;53.714;11.372;2023-01-26T10:16:20;101693.47;;;-1.56;100.00
61786;BME280;47692;53.714;11.372;2023-01-26T10:18:56;101706.47;;;-1.51;100.00
61786;BME280;47692;53.714;11.372;2023-01-26T10:21:24;101705.13;;;-1.43;100.00
61786;BME280;47692;53.714;11.372;2023-01-26T10:23:52;101686.09;;;-1.48;100.00
61786;BME280;47692;53.714;11.372;2023-01-26T10:26:18;101693.22;;;-1.41;100.00
61786;BME280;47692;53.714;11.372;2023-01-26T10:28:44;101682.88;;;-1.44;100.00
61786;BME280;47692;53.714;11.372;2023-01-26T10:31:16;101685.50;;;-1.42;100.00
61786;BME280;47692;53.714;11.372;2023-01-26T10:33:50;101685.75;;;-1.36;100.00
61786;BME280;47692;53.714;11.372;2023-01-26T10:36:16;101673.25;;;-1.28;100.00
61786;BME280;47692;53.714;11.372;2023-01-26T10:38:41;101676.59;;;-1.30;100.00
61786;BME280;47692;53.714;11.372;2023-01-26T10:41:20;101670.69;;;-1.28;100.00
61786;BME280;47692;53.714;11.372;2023-01-26T10:43:56;101665.09;;;-1.18;100.00
61786;BME280;47692;53.714;11.372;2023-01-26T10:48:50;101668.56;;;-1.18;100.00
61786;BME280;47692;53.714;11.372;2023-01-26T10:51:18;101668.38;;;-1.22;100.00
61786;BME280;47692;53.714;11.372;2023-01-26T10:53:46;101659.19;;;-1.17;100.00
61786;BME280;47692;53.714;11.372;2023-01-26T10:56:12;101661.97;;;-1.11;100.00
61786;BME280;47692;53.714;11.372;2023-01-26T11:01:09;101659.66;;;-1.05;100.00
61786;BME280;47692;53.714;11.372;2023-01-26T11:03:42;101659.00;;;-1.01;100.00
61786;BME280;47692;53.714;11.372;2023-01-26T11:06:25;101657.34;;;-0.99;100.00
61786;BME280;47692;53.714;11.372;2023-01-26T11:08:51;101654.13;;;-0.94;100.00
61786;BME280;47692;53.714;11.372;2023-01-26T11:11:22;101653.47;;;-0.89;100.00
61786;BME280;47692;53.714;11.372;2023-01-26T11:13:51;101655.47;;;-0.82;100.00
61786;BME280;47692;53.714;11.372;2023-01-26T11:16:33;101656.31;;;-0.81;100.00
61786;BME280;47692;53.714;11.372;2023-01-26T11:19:03;101658.31;;;-0.74;100.00
61786;BME280;47692;53.714;11.372;2023-01-26T11:24:11;101657.50;;;-0.73;100.00
61786;BME280;47692;53.714;11.372;2023-01-26T11:39:36;101641.97;;;-0.76;100.00
61786;BME280;47692;53.714;11.372;2023-01-26T11:42:26;101630.00;;;-0.77;100.00
61786;BME280;47692;53.714;11.372;2023-01-26T11:47:30;101620.88;;;-0.69;100.00
61786;BME280;47692;53.714;11.372;2023-01-26T11:50:08;101620.22;;;-0.64;100.00
61786;BME280;47692;53.714;11.372;2023-01-26T11:52:45;101621.25;;;-0.59;100.00
61786;BME280;47692;53.714;11.372;2023-01-26T11:55:21;101623.91;;;-0.56;100.00
61786;BME280;47692;53.714;11.372;2023-01-26T11:57:55;101627.38;;;-0.56;100.00
61786;BME280;47692;53.714;11.372;2023-01-26T12:00:25;101625.56;;;-0.58;100.00
61786;BME280;47692;53.714;11.372;2023-01-26T12:03:03;101631.59;;;-0.56;100.00
61786;BME280;47692;53.714;11.372;2023-01-26T12:05:30;101626.63;;;-0.53;100.00
61786;BME280;47692;53.714;11.372;2023-01-26T12:08:06;101622.28;;;-0.54;100.00
61786;BME280;47692;53.714;11.372;2023-01-26T12:10:44;101616.34;;;-0.53;100.00
61786;BME280;47692;53.714;11.372;2023-01-26T12:15:46;101614.81;;;-0.48;100.00
61786;BME280;47692;53.714;11.372;2023-01-26T12:18:16;101620.78;;;-0.49;100.00
61786;BME280;47692;53.714;11.372;2023-01-26T12:23:42;101604.63;;;-0.46;100.00
61786;BME280;47692;53.714;11.372;2023-01-26T12:26:10;101604.75;;;-0.43;100.00
61786;BME280;47692;53.714;11.372;2023-01-26T12:28:39;101589.47;;;-0.39;100.00
61786;BME280;47692;53.714;11.372;2023-01-26T12:31:25;101592.78;;;-0.43;100.00
61786;BME280;47692;53.714;11.372;2023-01-26T12:33:54;101592.78;;;-0.43;100.00
61786;BME280;47692;53.714;11.372;2023-01-26T12:44:09;101580.97;;;-0.38;100.00
61786;BME280;47692;53.714;11.372;2023-01-26T12:46:41;101578.47;;;-0.36;100.00
61786;BME280;47692;53.714;11.372;2023-01-26T12:49:31;101577.59;;;-0.37;100.00
61786;BME280;47692;53.714;11.372;2023-01-26T12:51:55;101575.84;;;-0.38;100.00
61786;BME280;47692;53.714;11.372;2023-01-26T12:56:54;101575.75;;;-0.41;100.00
61786;BME280;47692;53.714;11.372;2023-01-26T12:59:33;101572.38;;;-0.40;100.00
61786;BME280;47692;53.714;11.372;2023-01-26T13:02:07;101570.63;;;-0.41;100.00
61786;BME280;47692;53.714;11.372;2023-01-26T13:04:33;101566.31;;;-0.42;100.00
61786;BME280;47692;53.714;11.372;2023-01-26T13:07:02;101568.97;;;-0.39;100.00
61786;BME280;47692;53.714;11.372;2023-01-26T13:09:30;101565.81;;;-0.31;100.00
61786;BME280;47692;53.714;11.372;2023-01-26T13:11:56;101557.94;;;-0.36;100.00
61786;BME280;47692;53.714;11.372;2023-01-26T13:16:48;101569.25;;;-0.31;100.00
61786;BME280;47692;53.714;11.372;2023-01-26T13:21:57;101569.41;;;-0.26;100.00
61786;BME280;47692;53.714;11.372;2023-01-26T13:26:48;101569.63;;;-0.20;100.00
61786;BME280;47692;53.714;11.372;2023-01-26T13:31:49;101580.09;;;-0.14;100.00
61786;BME280;47692;53.714;11.372;2023-01-26T13:34:14;101579.13;;;-0.18;100.00